Time;durP1;ratioP1;P1;durP2;ratioP2;P2;SDS_P1;SDS_P2;PMS_P1;PMS_P2;Temp;Humidity;BMP_temperature;BMP_pressure;BME280_temperature;BME280_humidity;BME280_pressure;Samples;Min_cycle;Max_cycle;Signal;HPM_P1;HPM_P2
2023/07/09 00:00:26;;;;;;;;;;;19.20;76.70;;;;;;5067574;28;19916;-83
2023/07/09 00:02:52;;;;;;;;;;;19.20;76.60;;;;;;5077188;28;19916;-82
2023/07/09 00:05:31;;;;;;;;;;;19.20;76.50;;;;;;5071574;28;19916;-83
2023/07/09 00:07:56;;;;;;;;;;;19.30;76.40;;;;;;5075410;28;20017;-79
2023/07/09 00:10:22;;;;;;;;;;;19.30;76.30;;;;;;5056954;28;19920;-82
2023/07/09 00:12:48;;;;;;;;;;;19.20;76.30;;;;;;5065092;28;19921;-79
2023/07/09 00:15:15;;;;;;;;;;;19.20;76.60;;;;;;5074837;28;19916;-80
2023/07/09 00:17:41;;;;;;;;;;;19.20;76.80;;;;;;5074981;28;19913;-79
2023/07/09 00:20:13;;;;;;;;;;;19.00;77.10;;;;;;5074829;28;19913;-80
2023/07/09 00:22:39;;;;;;;;;;;19.00;77.30;;;;;;5054256;28;19913;-80
2023/07/09 00:25:05;;;;;;;;;;;18.90;77.80;;;;;;5077444;28;19920;-79
2023/07/09 00:27:31;;;;;;;;;;;18.80;78.10;;;;;;5075124;28;20366;-79
2023/07/09 00:29:56;;;;;;;;;;;18.70;78.30;;;;;;5051753;28;20278;-79
2023/07/09 00:32:22;;;;;;;;;;;18.70;78.40;;;;;;5058328;28;19912;-81
2023/07/09 00:34:51;;;;;;;;;;;18.70;78.80;;;;;;5075968;28;19982;-86
2023/07/09 00:37:19;;;;;;;;;;;18.60;79.20;;;;;;5075503;28;19973;-85
2023/07/09 00:39:45;;;;;;;;;;;18.60;80.30;;;;;;5066232;28;19917;-80
2023/07/09 00:42:17;;;;;;;;;;;18.60;79.90;;;;;;5071913;28;20381;-80
2023/07/09 00:44:47;;;;;;;;;;;18.60;80.00;;;;;;5076838;28;19920;-81
2023/07/09 00:47:17;;;;;;;;;;;18.60;80.30;;;;;;5056461;28;20007;-81
2023/07/09 00:49:47;;;;;;;;;;;18.60;80.50;;;;;;5072005;28;19912;-83
2023/07/09 00:52:19;;;;;;;;;;;18.50;80.80;;;;;;5077003;28;19919;-81
2023/07/09 00:54:46;;;;;;;;;;;18.50;81.50;;;;;;5055877;28;19940;-82
2023/07/09 00:57:17;;;;;;;;;;;18.50;81.90;;;;;;5072043;28;19991;-82
2023/07/09 00:59:46;;;;;;;;;;;18.40;82.00;;;;;;5075281;28;19912;-80
2023/07/09 01:02:12;;;;;;;;;;;18.40;82.20;;;;;;5093539;28;19912;-79
2023/07/09 01:04:39;;;;;;;;;;;18.40;82.40;;;;;;5064034;28;20279;-81
2023/07/09 01:07:05;;;;;;;;;;;18.40;82.50;;;;;;5071042;28;20320;-80
2023/07/09 01:09:31;;;;;;;;;;;18.40;82.90;;;;;;5075588;28;19909;-81
2023/07/09 01:12:00;;;;;;;;;;;18.40;83.00;;;;;;5064185;28;19957;-80
2023/07/09 01:14:26;;;;;;;;;;;18.40;83.40;;;;;;5075951;28;19924;-81
2023/07/09 01:16:57;;;;;;;;;;;18.40;83.50;;;;;;5076753;28;20281;-82
2023/07/09 01:19:25;;;;;;;;;;;18.40;83.50;;;;;;5061708;28;19913;-81
2023/07/09 01:22:00;;;;;;;;;;;18.30;83.70;;;;;;5060412;28;19912;-80
2023/07/09 01:24:45;;;;;;;;;;;18.30;83.90;;;;;;5075836;28;20003;-81
2023/07/09 01:27:10;;;;;;;;;;;18.30;84.00;;;;;;5062425;28;19913;-81
2023/07/09 01:29:37;;;;;;;;;;;18.40;84.20;;;;;;5079013;28;19915;-80
2023/07/09 01:32:04;;;;;;;;;;;18.40;84.40;;;;;;5080334;28;20011;-81
2023/07/09 01:34:30;;;;;;;;;;;18.30;84.50;;;;;;5077786;28;19917;-81
2023/07/09 01:36:56;;;;;;;;;;;18.40;84.80;;;;;;5075585;28;20392;-81
2023/07/09 01:39:22;;;;;;;;;;;18.40;85.10;;;;;;5077937;28;19912;-81
2023/07/09 01:41:48;;;;;;;;;;;18.40;85.30;;;;;;5090219;28;19916;-81
2023/07/09 01:44:14;;;;;;;;;;;18.50;85.50;;;;;;5081235;28;20361;-80
2023/07/09 01:46:41;;;;;;;;;;;18.50;85.60;;;;;;5084616;28;19923;-81
2023/07/09 01:49:08;;;;;;;;;;;18.50;85.60;;;;;;5051285;28;19908;-82
2023/07/09 01:51:36;;;;;;;;;;;18.60;85.70;;;;;;5087196;28;19909;-81
2023/07/09 01:54:02;;;;;;;;;;;18.60;85.80;;;;;;5072775;28;19916;-81
2023/07/09 01:56:29;;;;;;;;;;;18.50;85.90;;;;;;5069929;28;19914;-78
2023/07/09 01:59:01;;;;;;;;;;;18.60;86.90;;;;;;5078552;28;19917;-83
2023/07/09 02:01:28;;;;;;;;;;;18.60;88.20;;;;;;5074709;28;19916;-81
2023/07/09 02:03:54;;;;;;;;;;;18.60;88.50;;;;;;5073755;28;20277;-80
2023/07/09 02:06:19;;;;;;;;;;;18.60;88.70;;;;;;5074367;28;19908;-81
2023/07/09 02:08:46;;;;;;;;;;;18.70;88.80;;;;;;5074115;28;19920;-81
2023/07/09 02:11:11;;;;;;;;;;;18.80;89.10;;;;;;5055365;28;19928;-80
2023/07/09 02:13:37;;;;;;;;;;;18.80;89.10;;;;;;5074049;28;19916;-80
2023/07/09 02:16:03;;;;;;;;;;;18.80;89.10;;;;;;5074234;28;19913;-79
2023/07/09 02:18:29;;;;;;;;;;;18.90;89.20;;;;;;5074256;28;19948;-80
2023/07/09 02:20:55;;;;;;;;;;;18.90;89.20;;;;;;5078326;28;20373;-81
2023/07/09 02:23:25;;;;;;;;;;;19.00;89.20;;;;;;5075587;28;19919;-81
2023/07/09 02:25:51;;;;;;;;;;;19.10;89.10;;;;;;5057383;28;19913;-81
2023/07/09 02:28:18;;;;;;;;;;;19.10;88.80;;;;;;5074025;28;19913;-80
2023/07/09 02:30:43;;;;;;;;;;;19.10;88.60;;;;;;5074565;28;19920;-81
2023/07/09 02:33:09;;;;;;;;;;;19.10;88.30;;;;;;5074686;28;19912;-81
2023/07/09 02:35:35;;;;;;;;;;;19.20;88.10;;;;;;5075825;28;19917;-82
2023/07/09 02:38:01;;;;;;;;;;;19.20;87.70;;;;;;5077324;28;20023;-80
2023/07/09 02:40:27;;;;;;;;;;;19.10;87.70;;;;;;5083946;28;19908;-82
2023/07/09 02:42:53;;;;;;;;;;;19.10;87.70;;;;;;5063827;28;19912;-81
2023/07/09 02:45:18;;;;;;;;;;;19.10;87.90;;;;;;5060498;28;19916;-79
2023/07/09 02:47:44;;;;;;;;;;;19.10;88.10;;;;;;5074835;28;19909;-81
2023/07/09 02:50:10;;;;;;;;;;;19.10;88.30;;;;;;5067018;28;19916;-82
2023/07/09 02:52:35;;;;;;;;;;;19.10;88.40;;;;;;5077149;28;19931;-82
2023/07/09 02:55:01;;;;;;;;;;;19.00;88.40;;;;;;5077469;28;19919;-82
2023/07/09 02:57:27;;;;;;;;;;;19.10;88.60;;;;;;5087313;28;19907;-82
2023/07/09 02:59:52;;;;;;;;;;;19.10;88.70;;;;;;5063717;28;19952;-81
2023/07/09 03:02:18;;;;;;;;;;;19.20;88.90;;;;;;5078144;28;19931;-82
2023/07/09 03:04:44;;;;;;;;;;;19.30;89.00;;;;;;5057547;28;19909;-81
2023/07/09 03:07:09;;;;;;;;;;;19.50;89.10;;;;;;5077148;28;19912;-82
2023/07/09 03:09:35;;;;;;;;;;;19.60;88.80;;;;;;5062818;28;20392;-80
2023/07/09 03:12:01;;;;;;;;;;;19.80;88.60;;;;;;5070552;28;20046;-82
2023/07/09 03:14:26;;;;;;;;;;;20.00;88.40;;;;;;5064310;28;20038;-81
2023/07/09 03:17:02;;;;;;;;;;;20.20;88.10;;;;;;5061262;28;19916;-84
2023/07/09 03:19:28;;;;;;;;;;;20.40;87.80;;;;;;5075138;28;19969;-83
2023/07/09 03:21:54;;;;;;;;;;;20.50;87.50;;;;;;5062007;28;19908;-81
2023/07/09 03:24:19;;;;;;;;;;;20.60;87.20;;;;;;5080917;28;19966;-81
2023/07/09 03:26:46;;;;;;;;;;;20.70;86.70;;;;;;5082877;28;19909;-80
2023/07/09 03:29:12;;;;;;;;;;;20.80;86.40;;;;;;5079462;28;19913;-82
2023/07/09 03:31:37;;;;;;;;;;;20.80;85.70;;;;;;5078034;28;20377;-83
2023/07/09 03:34:03;;;;;;;;;;;20.80;84.30;;;;;;5060714;28;19916;-81
2023/07/09 03:36:29;;;;;;;;;;;20.80;83.60;;;;;;5078771;28;20286;-83
2023/07/09 03:38:55;;;;;;;;;;;20.80;82.90;;;;;;5062884;28;19909;-82
2023/07/09 03:41:21;;;;;;;;;;;20.80;81.10;;;;;;5077645;28;19908;-81
2023/07/09 03:43:50;;;;;;;;;;;20.90;80.10;;;;;;5078913;28;20007;-83
2023/07/09 03:46:15;;;;;;;;;;;20.90;79.10;;;;;;5063121;28;19920;-83
2023/07/09 03:48:41;;;;;;;;;;;20.90;78.40;;;;;;5063636;28;19909;-81
2023/07/09 03:51:07;;;;;;;;;;;21.00;78.00;;;;;;5077581;28;19950;-79
2023/07/09 03:53:33;;;;;;;;;;;21.20;77.20;;;;;;5076930;28;19920;-80
2023/07/09 03:55:59;;;;;;;;;;;21.40;77.40;;;;;;5067232;28;19927;-81
2023/07/09 03:58:25;;;;;;;;;;;21.60;76.80;;;;;;5076910;28;19919;-81
2023/07/09 04:00:51;;;;;;;;;;;21.70;76.10;;;;;;5074863;28;19909;-80
2023/07/09 04:03:17;;;;;;;;;;;21.80;73.90;;;;;;5076664;28;20006;-80
2023/07/09 04:05:43;;;;;;;;;;;21.90;73.00;;;;;;5076719;28;20001;-82
2023/07/09 04:08:08;;;;;;;;;;;22.00;73.00;;;;;;5076761;28;19908;-80
2023/07/09 04:10:34;;;;;;;;;;;22.10;73.10;;;;;;5057672;28;19909;-81
2023/07/09 04:13:00;;;;;;;;;;;22.20;71.80;;;;;;5076205;28;19920;-83
2023/07/09 04:15:26;;;;;;;;;;;22.20;70.90;;;;;;5058199;28;19935;-81
2023/07/09 04:17:51;;;;;;;;;;;22.30;70.80;;;;;;5075579;28;20279;-81
2023/07/09 04:20:18;;;;;;;;;;;22.40;69.90;;;;;;5076928;28;19931;-82
2023/07/09 04:22:44;;;;;;;;;;;22.50;69.90;;;;;;5076942;28;19962;-81
2023/07/09 04:25:10;;;;;;;;;;;22.60;69.10;;;;;;5068309;28;20369;-83
2023/07/09 04:27:36;;;;;;;;;;;22.70;68.30;;;;;;5076102;28;20011;-81
2023/07/09 04:30:04;;;;;;;;;;;22.70;68.30;;;;;;5076184;28;19943;-81
2023/07/09 04:32:30;;;;;;;;;;;22.80;67.70;;;;;;5066811;28;19947;-82
2023/07/09 04:34:56;;;;;;;;;;;22.80;66.50;;;;;;5055897;28;19960;-80
2023/07/09 04:37:22;;;;;;;;;;;22.70;66.70;;;;;;5061202;28;20370;-80
2023/07/09 04:39:47;;;;;;;;;;;22.80;67.00;;;;;;5064789;28;20031;-79
2023/07/09 04:42:14;;;;;;;;;;;22.80;67.00;;;;;;5075828;28;19912;-81
2023/07/09 04:44:41;;;;;;;;;;;22.90;67.00;;;;;;5055594;28;19919;-82
2023/07/09 04:47:07;;;;;;;;;;;23.10;66.80;;;;;;5056819;28;19908;-82
2023/07/09 04:49:33;;;;;;;;;;;23.20;66.60;;;;;;5073372;28;19913;-82
2023/07/09 04:51:59;;;;;;;;;;;23.20;65.90;;;;;;5081327;28;19934;-81
2023/07/09 04:54:25;;;;;;;;;;;23.20;64.30;;;;;;5092954;28;19916;-81
2023/07/09 04:56:51;;;;;;;;;;;23.20;64.40;;;;;;5086203;28;19908;-80
2023/07/09 04:59:16;;;;;;;;;;;23.20;64.40;;;;;;5078137;28;19913;-80
2023/07/09 05:01:42;;;;;;;;;;;23.30;64.10;;;;;;5085160;28;19904;-81
2023/07/09 05:04:07;;;;;;;;;;;23.40;63.30;;;;;;5086834;28;20366;-82
2023/07/09 05:06:34;;;;;;;;;;;23.50;63.30;;;;;;5077480;28;20448;-82
2023/07/09 05:09:00;;;;;;;;;;;23.50;62.80;;;;;;5076095;28;19909;-81
2023/07/09 05:11:25;;;;;;;;;;;23.50;62.80;;;;;;5072385;28;19924;-82
2023/07/09 05:13:51;;;;;;;;;;;23.70;60.00;;;;;;5076098;28;19970;-81
2023/07/09 05:16:17;;;;;;;;;;;24.10;59.80;;;;;;5075387;28;20006;-80
2023/07/09 05:18:43;;;;;;;;;;;25.00;60.10;;;;;;5074393;28;19923;-81
2023/07/09 05:21:08;;;;;;;;;;;26.10;59.60;;;;;;5075643;28;20432;-81
2023/07/09 05:23:34;;;;;;;;;;;27.30;57.80;;;;;;5075529;28;19909;-82
2023/07/09 05:26:01;;;;;;;;;;;27.90;53.30;;;;;;5075907;28;19912;-82
2023/07/09 05:28:28;;;;;;;;;;;28.10;50.90;;;;;;5075216;28;19909;-81
2023/07/09 05:30:53;;;;;;;;;;;28.40;50.90;;;;;;5075125;28;19954;-82
2023/07/09 05:33:19;;;;;;;;;;;28.80;50.20;;;;;;5074535;28;19916;-82
2023/07/09 05:35:45;;;;;;;;;;;29.10;49.40;;;;;;5072988;28;20019;-81
2023/07/09 05:38:13;;;;;;;;;;;30.20;49.50;;;;;;5074935;28;19919;-83
2023/07/09 05:40:39;;;;;;;;;;;30.30;47.90;;;;;;5055361;28;20286;-81
2023/07/09 05:43:05;;;;;;;;;;;30.10;46.90;;;;;;5067391;28;20008;-82
2023/07/09 05:45:31;;;;;;;;;;;30.10;46.90;;;;;;5074162;28;20290;-81
2023/07/09 05:48:00;;;;;;;;;;;30.40;47.70;;;;;;5064472;28;20362;-82
2023/07/09 05:50:26;;;;;;;;;;;31.10;45.70;;;;;;5076236;28;20011;-81
2023/07/09 05:52:52;;;;;;;;;;;31.20;45.00;;;;;;5075730;28;19973;-82
2023/07/09 05:55:17;;;;;;;;;;;31.30;45.70;;;;;;5073694;28;20007;-83
2023/07/09 05:57:43;;;;;;;;;;;31.10;44.70;;;;;;5074441;28;19917;-82
2023/07/09 06:00:09;;;;;;;;;;;31.30;45.30;;;;;;5053808;28;19909;-81
2023/07/09 06:02:35;;;;;;;;;;;;;;;;;;5056446;28;19908;-83
2023/07/09 06:05:01;;;;;;;;;;;;;;;;;;5057592;28;19962;-83
2023/07/09 06:07:27;;;;;;;;;;;32.50;51.90;;;;;;5074864;28;19961;-84
2023/07/09 06:09:53;;;;;;;;;;;32.00;52.70;;;;;;5076147;28;19912;-82
2023/07/09 06:12:19;;;;;;;;;;;31.30;43.10;;;;;;5064573;28;19924;-83
2023/07/09 06:14:45;;;;;;;;;;;;;;;;;;5071996;28;19959;-83
2023/07/09 06:17:11;;;;;;;;;;;30.50;43.60;;;;;;5082730;28;19923;-82
2023/07/09 06:19:37;;;;;;;;;;;30.60;44.40;;;;;;5074533;28;19915;-81
2023/07/09 06:22:02;;;;;;;;;;;30.90;43.60;;;;;;5075072;28;20431;-83
2023/07/09 06:24:28;;;;;;;;;;;31.30;43.20;;;;;;5084343;28;19908;-81
2023/07/09 06:26:54;;;;;;;;;;;31.90;43.30;;;;;;5075260;28;19962;-80
2023/07/09 06:29:19;;;;;;;;;;;33.30;43.30;;;;;;5075954;28;19916;-82
2023/07/09 06:31:45;;;;;;;;;;;36.00;41.10;;;;;;5074986;28;19951;-82
2023/07/09 06:34:11;;;;;;;;;;;;;;;;;;5064038;28;19923;-81
2023/07/09 06:36:37;;;;;;;;;;;;;;;;;;5074406;28;19951;-81
2023/07/09 06:39:03;;;;;;;;;;;36.50;41.00;;;;;;5077206;28;19912;-83
2023/07/09 06:41:29;;;;;;;;;;;39.00;38.10;;;;;;5085077;28;19920;-81
2023/07/09 06:43:55;;;;;;;;;;;38.90;38.30;;;;;;5088999;28;19968;-81
2023/07/09 06:46:20;;;;;;;;;;;38.70;38.00;;;;;;5093021;28;19968;-81
2023/07/09 06:48:46;;;;;;;;;;;38.20;38.10;;;;;;5087497;28;20293;-80
2023/07/09 06:51:16;;;;;;;;;;;38.00;37.20;;;;;;5060611;28;20389;-82
2023/07/09 06:53:44;;;;;;;;;;;38.00;38.00;;;;;;5073921;28;20399;-82
2023/07/09 06:56:09;;;;;;;;;;;;;;;;;;5072880;28;19912;-81
2023/07/09 06:58:35;;;;;;;;;;;;;;;;;;5081553;28;19931;-81
2023/07/09 07:01:05;;;;;;;;;;;;;;;;;;5065772;28;19912;-82
2023/07/09 07:03:30;;;;;;;;;;;;;;;;;;5086595;28;19979;-81
2023/07/09 07:05:57;;;;;;;;;;;38.40;36.10;;;;;;5089110;28;20295;-82
2023/07/09 07:08:23;;;;;;;;;;;40.70;34.40;;;;;;5086037;28;19935;-82
2023/07/09 07:10:49;;;;;;;;;;;39.20;34.00;;;;;;5079967;28;19995;-83
2023/07/09 07:13:15;;;;;;;;;;;;;;;;;;5078963;28;19921;-83
2023/07/09 07:15:41;;;;;;;;;;;36.90;34.50;;;;;;5073785;28;19912;-82
2023/07/09 07:18:08;;;;;;;;;;;34.00;37.60;;;;;;5079877;28;19923;-80
2023/07/09 07:20:33;;;;;;;;;;;33.40;37.50;;;;;;5077791;28;19916;-81
2023/07/09 07:22:59;;;;;;;;;;;33.00;38.40;;;;;;5077717;28;20277;-82
2023/07/09 07:25:25;;;;;;;;;;;33.30;38.70;;;;;;5062682;28;19972;-84
2023/07/09 07:27:51;;;;;;;;;;;;;;;;;;5079199;28;19913;-82
2023/07/09 07:30:17;;;;;;;;;;;33.00;38.30;;;;;;5076681;28;19916;-82
2023/07/09 07:32:46;;;;;;;;;;;32.00;40.50;;;;;;5078352;28;19935;-83
2023/07/09 07:35:13;;;;;;;;;;;33.30;39.40;;;;;;5078159;28;20449;-83
2023/07/09 07:37:39;;;;;;;;;;;35.00;38.90;;;;;;5077357;28;19913;-83
2023/07/09 07:40:05;;;;;;;;;;;36.60;37.10;;;;;;5073462;28;19962;-84
2023/07/09 07:42:31;;;;;;;;;;;36.80;35.70;;;;;;5050099;28;19966;-82
2023/07/09 07:44:56;;;;;;;;;;;36.60;35.30;;;;;;5076938;28;19909;-81
2023/07/09 07:47:22;;;;;;;;;;;35.40;35.10;;;;;;5074230;28;19912;-83
2023/07/09 07:49:48;;;;;;;;;;;34.60;36.70;;;;;;5070495;28;19958;-83
2023/07/09 07:52:13;;;;;;;;;;;35.40;37.30;;;;;;5078113;28;20285;-85
2023/07/09 07:54:39;;;;;;;;;;;37.40;35.60;;;;;;5064326;28;19916;-84
2023/07/09 07:57:09;;;;;;;;;;;38.20;35.00;;;;;;5078760;28;19915;-83
2023/07/09 07:59:35;;;;;;;;;;;;;;;;;;5060350;28;19912;-80
2023/07/09 08:02:01;;;;;;;;;;;39.00;32.30;;;;;;5065589;28;19912;-83
2023/07/09 08:04:27;;;;;;;;;;;37.30;33.90;;;;;;5070568;28;19916;-81
2023/07/09 08:06:53;;;;;;;;;;;35.80;34.40;;;;;;5084529;28;19974;-80
2023/07/09 08:09:19;;;;;;;;;;;34.50;34.80;;;;;;5084777;28;19912;-80
2023/07/09 08:11:44;;;;;;;;;;;34.80;36.30;;;;;;5086053;28;19921;-83
2023/07/09 08:14:13;;;;;;;;;;;36.40;35.80;;;;;;5081165;28;19924;-84
2023/07/09 08:16:39;;;;;;;;;;;38.10;34.20;;;;;;5082688;28;19909;-84
2023/07/09 08:19:05;;;;;;;;;;;;;;;;;;5069395;28;20384;-84
2023/07/09 08:21:30;;;;;;;;;;;40.80;32.50;;;;;;5077299;28;20984;-83
2023/07/09 08:23:57;;;;;;;;;;;;;;;;;;5079028;28;19943;-84
2023/07/09 08:26:24;;;;;;;;;;;;;;;;;;5074731;28;19909;-83
2023/07/09 08:28:50;;;;;;;;;;;;;;;;;;5080654;28;19916;-82
2023/07/09 08:31:16;;;;;;;;;;;;;;;;;;5084466;28;19916;-82
2023/07/09 08:33:42;;;;;;;;;;;;;;;;;;5080377;28;19924;-84
2023/07/09 08:36:07;;;;;;;;;;;43.10;29.80;;;;;;5056031;28;19924;-83
2023/07/09 08:38:34;;;;;;;;;;;;;;;;;;5076260;28;19976;-82
2023/07/09 08:40:59;;;;;;;;;;;;;;;;;;5078313;28;19916;-80
2023/07/09 08:43:25;;;;;;;;;;;;;;;;;;5072467;28;20290;-81
2023/07/09 08:45:51;;;;;;;;;;;;;;;;;;5078372;28;20011;-79
2023/07/09 08:48:17;;;;;;;;;;;;;;;;;;5077678;28;19962;-80
2023/07/09 08:50:43;;;;;;;;;;;;;;;;;;5074954;28;20007;-82
2023/07/09 08:53:09;;;;;;;;;;;;;;;;;;5076233;28;19920;-84
2023/07/09 08:55:40;;;;;;;;;;;;;;;;;;5076042;28;19974;-83
2023/07/09 08:58:06;;;;;;;;;;;;;;;;;;5054939;28;19959;-82
2023/07/09 09:00:32;;;;;;;;;;;;;;;;;;5072431;28;19908;-83
2023/07/09 09:02:58;;;;;;;;;;;;;;;;;;5075774;28;19909;-82
2023/07/09 09:05:24;;;;;;;;;;;;;;;;;;5057346;28;19938;-83
2023/07/09 09:08:10;;;;;;;;;;;43.00;30.80;;;;;;5075733;28;19913;-84
2023/07/09 09:10:56;;;;;;;;;;;40.00;29.10;;;;;;5075688;28;20361;-84
2023/07/09 09:13:24;;;;;;;;;;;39.70;30.00;;;;;;5057458;28;19943;-82
2023/07/09 09:15:51;;;;;;;;;;;40.40;30.60;;;;;;5075688;28;19908;-84
2023/07/09 09:18:27;;;;;;;;;;;41.70;30.30;;;;;;5078972;28;19915;-84
2023/07/09 09:20:57;;;;;;;;;;;41.40;29.70;;;;;;5079683;28;20452;-81
2023/07/09 09:23:26;;;;;;;;;;;37.40;30.70;;;;;;5081667;28;19928;-84
2023/07/09 09:25:53;;;;;;;;;;;36.70;31.60;;;;;;5081704;28;19990;-82
2023/07/09 09:28:19;;;;;;;;;;;34.80;33.20;;;;;;5078641;28;19990;-82
2023/07/09 09:30:45;;;;;;;;;;;33.10;35.60;;;;;;5082203;28;19908;-83
2023/07/09 09:33:14;;;;;;;;;;;33.00;37.10;;;;;;5075164;28;19921;-83
2023/07/09 09:35:41;;;;;;;;;;;34.80;36.50;;;;;;5074580;28;20361;-84
2023/07/09 09:38:15;;;;;;;;;;;37.00;33.60;;;;;;5075562;28;19909;-82
2023/07/09 09:40:41;;;;;;;;;;;37.90;32.10;;;;;;5075566;28;19962;-84
2023/07/09 09:43:13;;;;;;;;;;;39.40;30.80;;;;;;5058072;28;19908;-82
2023/07/09 09:45:39;;;;;;;;;;;;;;;;;;5069749;28;19908;-83
2023/07/09 09:48:18;;;;;;;;;;;40.30;31.20;;;;;;5074965;28;19955;-82
2023/07/09 09:50:45;;;;;;;;;;;42.50;30.10;;;;;;5073548;28;20282;-83
2023/07/09 09:53:17;;;;;;;;;;;42.30;29.90;;;;;;5074619;28;20404;-82
2023/07/09 09:55:44;;;;;;;;;;;42.10;29.90;;;;;;5074288;28;19909;-83
2023/07/09 09:58:13;;;;;;;;;;;40.70;29.80;;;;;;5079385;28;19993;-81
2023/07/09 10:00:39;;;;;;;;;;;39.90;30.50;;;;;;5053825;28;19908;-83
2023/07/09 10:03:06;;;;;;;;;;;39.30;30.20;;;;;;5073186;28;20442;-82
2023/07/09 10:05:38;;;;;;;;;;;39.10;31.00;;;;;;5074447;28;20303;-81
2023/07/09 10:08:17;;;;;;;;;;;36.70;30.80;;;;;;5074336;28;19919;-82
2023/07/09 10:10:44;;;;;;;;;;;35.40;31.60;;;;;;5073443;28;19986;-82
2023/07/09 10:13:22;;;;;;;;;;;34.10;33.20;;;;;;5060168;28;19915;-83
2023/07/09 10:16:07;;;;;;;;;;;34.00;34.80;;;;;;5073832;28;20320;-82
2023/07/09 10:18:32;;;;;;;;;;;35.10;34.80;;;;;;5060759;28;19920;-81
2023/07/09 10:21:05;;;;;;;;;;;36.60;33.30;;;;;;5075792;28;19908;-81
2023/07/09 10:23:37;;;;;;;;;;;37.20;32.80;;;;;;5056806;28;19912;-82
2023/07/09 10:26:35;;;;;;;;;;;37.50;32.60;;;;;;5076516;28;19912;-83
2023/07/09 10:29:18;;;;;;;;;;;37.70;32.40;;;;;;5042615;28;19912;-82
2023/07/09 10:31:47;;;;;;;;;;;36.80;32.20;;;;;;5077246;28;19916;-83
2023/07/09 10:34:35;;;;;;;;;;;36.40;32.80;;;;;;5079905;28;19920;-80
2023/07/09 10:37:08;;;;;;;;;;;35.90;32.70;;;;;;5087566;28;19912;-80
2023/07/09 10:39:47;;;;;;;;;;;35.00;33.50;;;;;;5079012;28;19913;-82
2023/07/09 10:42:18;;;;;;;;;;;33.80;34.10;;;;;;5055831;28;19956;-81
2023/07/09 10:44:46;;;;;;;;;;;32.60;35.10;;;;;;5054220;28;19908;-81
2023/07/09 10:47:28;;;;;;;;;;;31.70;35.70;;;;;;5070674;28;20373;-82
2023/07/09 10:49:55;;;;;;;;;;;31.10;36.20;;;;;;5073971;28;19934;-83
2023/07/09 10:52:25;;;;;;;;;;;30.40;36.90;;;;;;5075742;28;19916;-81
2023/07/09 10:55:00;;;;;;;;;;;29.60;37.40;;;;;;5074290;28;20320;-83
2023/07/09 10:57:30;;;;;;;;;;;29.40;37.90;;;;;;5073992;28;20388;-80
2023/07/09 10:59:56;;;;;;;;;;;29.20;38.90;;;;;;5074454;28;19944;-82
2023/07/09 11:02:26;;;;;;;;;;;29.00;38.80;;;;;;5073321;28;19909;-83
2023/07/09 11:05:00;;;;;;;;;;;29.10;39.60;;;;;;5045853;28;19913;-82
2023/07/09 11:07:29;;;;;;;;;;;29.00;40.00;;;;;;5075355;28;19917;-82
2023/07/09 11:09:57;;;;;;;;;;;29.00;40.20;;;;;;5060326;28;19952;-82
2023/07/09 11:12:32;;;;;;;;;;;28.90;40.60;;;;;;5067888;28;20011;-83
2023/07/09 11:15:03;;;;;;;;;;;28.80;40.60;;;;;;5050326;28;19916;-81
2023/07/09 11:17:29;;;;;;;;;;;28.80;40.90;;;;;;5064945;28;19908;-81
2023/07/09 11:19:56;;;;;;;;;;;28.80;41.30;;;;;;5073269;28;19955;-82
2023/07/09 11:22:23;;;;;;;;;;;28.90;41.30;;;;;;5076523;28;19908;-82
2023/07/09 11:24:51;;;;;;;;;;;28.90;41.90;;;;;;5077953;28;20322;-81
2023/07/09 11:27:21;;;;;;;;;;;28.60;42.60;;;;;;5073699;28;19916;-81
2023/07/09 11:29:49;;;;;;;;;;;28.50;43.00;;;;;;5070703;28;19908;-82
2023/07/09 11:32:18;;;;;;;;;;;28.30;42.80;;;;;;5052661;28;19909;-81
2023/07/09 11:34:45;;;;;;;;;;;28.10;42.80;;;;;;5066736;28;19917;-83
2023/07/09 11:37:12;;;;;;;;;;;27.90;42.80;;;;;;5075932;28;19959;-81
2023/07/09 11:39:38;;;;;;;;;;;27.70;42.80;;;;;;5068253;28;20352;-81
2023/07/09 11:42:22;;;;;;;;;;;27.70;42.50;;;;;;5084381;28;19908;-82
2023/07/09 11:44:49;;;;;;;;;;;27.80;42.10;;;;;;5079715;28;19959;-80
2023/07/09 11:47:22;;;;;;;;;;;28.00;42.10;;;;;;5078386;28;19909;-83
2023/07/09 11:50:08;;;;;;;;;;;28.10;42.00;;;;;;5078427;28;19954;-80
2023/07/09 11:52:36;;;;;;;;;;;28.20;42.30;;;;;;5058044;28;19919;-81
2023/07/09 11:55:03;;;;;;;;;;;28.30;42.00;;;;;;5069798;28;20008;-82
2023/07/09 11:57:29;;;;;;;;;;;28.20;41.80;;;;;;5076241;28;19995;-81
2023/07/09 11:59:58;;;;;;;;;;;28.10;41.30;;;;;;5079603;28;19978;-81
2023/07/09 12:02:28;;;;;;;;;;;27.90;41.40;;;;;;5079314;28;19909;-80
2023/07/09 12:04:53;;;;;;;;;;;27.90;42.20;;;;;;5078335;28;19944;-81
2023/07/09 12:07:22;;;;;;;;;;;27.90;42.40;;;;;;5058562;28;19909;-81
2023/07/09 12:09:50;;;;;;;;;;;27.80;42.50;;;;;;5075850;28;20328;-82
2023/07/09 12:12:17;;;;;;;;;;;27.80;42.40;;;;;;5061907;28;19982;-82
2023/07/09 12:14:43;;;;;;;;;;;27.90;42.60;;;;;;5074486;28;20552;-81
2023/07/09 12:17:09;;;;;;;;;;;28.00;42.60;;;;;;5080624;28;19976;-80
2023/07/09 12:19:34;;;;;;;;;;;28.10;42.90;;;;;;5067822;28;20332;-82
2023/07/09 12:22:00;;;;;;;;;;;27.90;42.80;;;;;;5083155;28;19974;-81
2023/07/09 12:24:27;;;;;;;;;;;27.80;42.90;;;;;;5084793;28;19913;-83
2023/07/09 12:26:54;;;;;;;;;;;27.50;42.70;;;;;;5068601;28;19919;-83
2023/07/09 12:29:20;;;;;;;;;;;27.40;42.90;;;;;;5080131;28;19915;-82
2023/07/09 12:31:45;;;;;;;;;;;27.30;43.10;;;;;;5089699;28;19909;-82
2023/07/09 12:34:17;;;;;;;;;;;27.40;43.10;;;;;;5088497;28;19921;-81
2023/07/09 12:36:49;;;;;;;;;;;27.40;43.30;;;;;;5080515;28;19936;-80
2023/07/09 12:39:17;;;;;;;;;;;27.50;43.80;;;;;;5076921;28;19916;-83
2023/07/09 12:41:44;;;;;;;;;;;27.20;44.80;;;;;;5076510;28;20015;-82
2023/07/09 12:44:16;;;;;;;;;;;27.10;45.00;;;;;;5079102;28;20001;-83
2023/07/09 12:46:42;;;;;;;;;;;27.20;45.20;;;;;;5056750;28;19908;-81
2023/07/09 12:49:08;;;;;;;;;;;27.10;45.70;;;;;;5058466;28;19908;-83
2023/07/09 12:51:37;;;;;;;;;;;27.00;45.80;;;;;;5076367;28;20387;-82
2023/07/09 12:54:19;;;;;;;;;;;27.00;45.90;;;;;;5075326;28;20289;-82
2023/07/09 12:56:45;;;;;;;;;;;27.00;46.10;;;;;;5075552;28;19908;-83
2023/07/09 12:59:22;;;;;;;;;;;26.90;46.20;;;;;;5075607;28;20007;-81
2023/07/09 13:02:01;;;;;;;;;;;26.70;46.60;;;;;;5076043;28;19908;-81
2023/07/09 13:04:32;;;;;;;;;;;26.50;46.90;;;;;;5076036;28;19908;-81
2023/07/09 13:06:59;;;;;;;;;;;26.40;47.30;;;;;;5075755;28;20004;-81
2023/07/09 13:09:26;;;;;;;;;;;26.40;47.30;;;;;;5057756;28;19908;-84
2023/07/09 13:11:52;;;;;;;;;;;26.50;47.20;;;;;;5076794;28;19920;-81
2023/07/09 13:14:20;;;;;;;;;;;26.60;47.30;;;;;;5058269;28;19935;-82
2023/07/09 13:16:46;;;;;;;;;;;26.50;47.30;;;;;;5078350;28;19951;-81
2023/07/09 13:19:12;;;;;;;;;;;26.40;47.40;;;;;;5077080;28;20305;-81
2023/07/09 13:21:38;;;;;;;;;;;26.40;47.50;;;;;;5075836;28;19908;-82
2023/07/09 13:24:24;;;;;;;;;;;26.50;47.40;;;;;;5077091;28;19944;-80
2023/07/09 13:26:50;;;;;;;;;;;26.70;47.40;;;;;;5072470;28;19908;-82
2023/07/09 13:29:17;;;;;;;;;;;26.80;47.00;;;;;;5067896;28;19947;-81
2023/07/09 13:31:46;;;;;;;;;;;26.80;47.00;;;;;;5075803;28;19988;-81
2023/07/09 13:34:20;;;;;;;;;;;26.60;47.10;;;;;;5066459;28;20113;-81
2023/07/09 13:36:46;;;;;;;;;;;26.40;47.10;;;;;;5054210;28;20495;-81
2023/07/09 13:39:13;;;;;;;;;;;26.30;47.20;;;;;;5075132;28;20281;-82
2023/07/09 13:41:39;;;;;;;;;;;26.20;47.30;;;;;;5056805;28;19908;-79
2023/07/09 13:44:11;;;;;;;;;;;26.00;47.00;;;;;;5075081;28;19915;-81
2023/07/09 13:46:37;;;;;;;;;;;25.90;47.50;;;;;;5057676;28;19909;-82
2023/07/09 13:49:04;;;;;;;;;;;25.80;47.80;;;;;;5075207;28;19912;-81
2023/07/09 13:51:30;;;;;;;;;;;25.80;48.20;;;;;;5075501;28;19916;-82
2023/07/09 13:53:57;;;;;;;;;;;25.80;48.30;;;;;;5079633;28;19946;-83
2023/07/09 13:56:24;;;;;;;;;;;25.90;48.70;;;;;;5077451;28;19912;-84
2023/07/09 13:58:50;;;;;;;;;;;25.90;48.60;;;;;;5056620;28;19908;-80
2023/07/09 14:01:21;;;;;;;;;;;26.30;48.70;;;;;;5075608;28;20003;-81
2023/07/09 14:03:47;;;;;;;;;;;27.10;47.50;;;;;;5056170;28;19923;-83
2023/07/09 14:06:13;;;;;;;;;;;27.60;46.00;;;;;;5073113;28;19916;-81
2023/07/09 14:08:39;;;;;;;;;;;27.80;45.20;;;;;;5061566;28;19909;-82
2023/07/09 14:11:11;;;;;;;;;;;27.90;45.20;;;;;;5072545;28;19927;-82
2023/07/09 14:13:37;;;;;;;;;;;27.80;45.40;;;;;;5062956;28;20449;-83
2023/07/09 14:16:02;;;;;;;;;;;28.60;45.60;;;;;;5058526;28;19956;-80
2023/07/09 14:18:28;;;;;;;;;;;29.50;44.50;;;;;;5076186;28;20294;-85
2023/07/09 14:20:56;;;;;;;;;;;29.90;43.60;;;;;;5058353;28;19931;-82
2023/07/09 14:23:22;;;;;;;;;;;29.20;43.20;;;;;;5061811;28;20016;-81
2023/07/09 14:25:48;;;;;;;;;;;28.90;44.10;;;;;;5082035;28;19956;-81
2023/07/09 14:28:15;;;;;;;;;;;28.90;44.50;;;;;;5083582;28;19908;-83
2023/07/09 14:30:43;;;;;;;;;;;29.00;44.50;;;;;;5060125;28;19915;-83